Time;durP1;ratioP1;P1;durP2;ratioP2;P2;SDS_P1;SDS_P2;PMS_P1;PMS_P2;Temp;Humidity;BMP_temperature;BMP_pressure;BME280_temperature;BME280_humidity;BME280_pressure;Samples;Min_cycle;Max_cycle;Signal;HPM_P1;HPM_P2
2022/05/25 00:01:57;;;;;;;;;;;;;;;11.29;74.95;101182.91;5051052;28;20555;-57
2022/05/25 00:04:22;;;;;;;;;;;;;;;11.27;74.11;101179.59;5050576;28;20427;-57
2022/05/25 00:06:47;;;;;;;;;;;;;;;11.26;74.27;101180.59;5054537;28;19920;-58
2022/05/25 00:09:13;;;;;;;;;;;;;;;11.26;74.32;101188.56;5053917;28;19970;-57
2022/05/25 00:11:38;;;;;;;;;;;;;;;11.22;74.05;101187.19;5054175;28;19937;-57
2022/05/25 00:14:03;;;;;;;;;;;;;;;11.20;75.01;101178.56;5054436;28;20459;-58
2022/05/25 00:16:29;;;;;;;;;;;;;;;11.20;74.79;101183.88;5054784;28;20283;-58
2022/05/25 00:21:38;;;;;;;;;;;;;;;11.16;74.57;101180.72;5053745;28;19927;-58
2022/05/25 00:24:03;;;;;;;;;;;;;;;11.15;74.52;101192.31;5053901;28;19921;-58
2022/05/25 00:26:31;;;;;;;;;;;;;;;11.11;75.08;101186.47;5054586;28;19943;-57
2022/05/25 00:28:57;;;;;;;;;;;;;;;11.09;74.55;101183.16;5053250;28;22371;-58
2022/05/25 00:31:23;;;;;;;;;;;;;;;11.08;74.96;101189.44;5053334;28;19931;-57
2022/05/25 00:33:48;;;;;;;;;;;;;;;11.07;74.37;101194.91;5054035;28;19947;-58
2022/05/25 00:36:13;;;;;;;;;;;;;;;11.04;75.40;101193.41;5036595;28;20375;-57
2022/05/25 00:38:38;;;;;;;;;;;;;;;11.03;75.17;101194.38;5054695;28;20012;-57
2022/05/25 00:41:03;;;;;;;;;;;;;;;11.00;74.62;101190.22;5053666;28;20371;-57
2022/05/25 00:43:29;;;;;;;;;;;;;;;10.98;75.02;101194.03;5053612;28;19921;-57
2022/05/25 00:45:57;;;;;;;;;;;;;;;10.97;75.52;101189.72;5052638;28;20440;-57
2022/05/25 00:48:28;;;;;;;;;;;;;;;10.98;75.14;101191.38;5054211;28;19978;-57
2022/05/25 00:51:12;;;;;;;;;;;;;;;10.97;74.60;101195.84;5053930;28;19969;-57
2022/05/25 00:53:37;;;;;;;;;;;;;;;10.95;74.75;101197.81;5052172;28;20307;-58
2022/05/25 00:56:02;;;;;;;;;;;;;;;10.93;74.58;101201.59;5052917;28;19967;-57
2022/05/25 00:58:27;;;;;;;;;;;;;;;10.90;75.39;101206.25;5053564;28;20124;-57
2022/05/25 01:00:53;;;;;;;;;;;;;;;10.88;75.25;101208.22;5053666;28;19929;-57
2022/05/25 01:03:19;;;;;;;;;;;;;;;10.84;75.80;101212.16;5053654;28;19940;-58
2022/05/25 01:05:53;;;;;;;;;;;;;;;10.83;75.71;101215.81;5053710;28;19921;-57
2022/05/25 01:08:25;;;;;;;;;;;;;;;10.80;75.46;101216.09;5053736;28;20661;-57
2022/05/25 01:10:59;;;;;;;;;;;;;;;10.79;75.40;101214.44;5053519;28;19921;-58
2022/05/25 01:13:36;;;;;;;;;;;;;;;10.78;75.85;101215.44;5052633;28;20337;-57
2022/05/25 01:16:04;;;;;;;;;;;;;;;10.77;76.00;101222.56;5053091;28;20004;-57
2022/05/25 01:18:35;;;;;;;;;;;;;;;10.75;76.50;101218.38;5052706;28;19928;-57
2022/05/25 01:21:12;;;;;;;;;;;;;;;10.74;75.26;101216.72;5052372;28;19927;-57
2022/05/25 01:23:50;;;;;;;;;;;;;;;10.74;75.70;101216.72;5053067;28;20047;-57
2022/05/25 01:26:34;;;;;;;;;;;;;;;10.69;76.46;101216.34;5052599;28;19927;-57
2022/05/25 01:29:04;;;;;;;;;;;;;;;10.68;76.67;101217.34;5053252;28;19951;-57
2022/05/25 01:31:35;;;;;;;;;;;;;;;10.66;75.50;101219.31;5052336;28;19928;-57
2022/05/25 01:34:22;;;;;;;;;;;;;;;10.67;75.34;101223.63;5052784;28;20333;-57
2022/05/25 01:36:50;;;;;;;;;;;;;;;10.66;75.24;101216.66;5051719;28;19955;-57
2022/05/25 01:39:22;;;;;;;;;;;;;;;10.65;76.42;101222.97;5052827;28;19920;-57
2022/05/25 01:41:52;;;;;;;;;;;;;;;10.63;75.93;101226.59;5044048;28;19956;-57
2022/05/25 01:44:22;;;;;;;;;;;;;;;10.61;75.50;101215.28;5051256;28;20010;-58
2022/05/25 01:46:51;;;;;;;;;;;;;;;10.61;76.09;101228.56;5053425;28;19921;-58
2022/05/25 01:49:19;;;;;;;;;;;;;;;10.59;76.29;101229.69;5051846;28;19927;-58
2022/05/25 01:51:59;;;;;;;;;;;;;;;10.56;75.57;101230.81;5052495;28;19921;-57
2022/05/25 01:54:27;;;;;;;;;;;;;;;10.55;76.59;101228.34;5052624;28;19927;-58
2022/05/25 01:56:54;;;;;;;;;;;;;;;10.53;76.01;101225.84;5048919;28;19961;-58
2022/05/25 01:59:20;;;;;;;;;;;;;;;10.52;76.58;101232.13;5048069;28;20371;-57
2022/05/25 02:04:19;;;;;;;;;;;;;;;10.48;76.14;101238.72;5045755;28;20009;-57
2022/05/25 02:04:37;;;;;;;;;;;;;;;10.42;76.86;101228.69;5049647;28;19921;-57
2022/05/25 02:07:09;;;;;;;;;;;;;;;10.36;76.44;101230.94;5050937;28;20306;-58
2022/05/25 02:09:47;;;;;;;;;;;;;;;10.35;76.62;101229.28;5050960;28;19924;-58
2022/05/25 02:12:12;;;;;;;;;;;;;;;10.35;76.53;101237.25;5040980;28;19921;-57
2022/05/25 02:14:46;;;;;;;;;;;;;;;10.32;77.72;101229.56;5052337;28;19966;-58
2022/05/25 02:17:26;;;;;;;;;;;;;;;10.28;77.33;101232.69;5052981;28;19917;-57
2022/05/25 02:20:06;;;;;;;;;;;;;;;10.27;77.90;101237.13;5051862;28;19928;-57
2022/05/25 02:22:37;;;;;;;;;;;;;;;10.23;76.93;101231.28;5052069;28;20557;-57
2022/05/25 02:25:29;;;;;;;;;;;;;;;10.21;77.39;101232.44;5051336;28;19921;-57
2022/05/25 02:28:00;;;;;;;;;;;;;;;10.18;77.81;101233.59;5048753;28;19960;-57
2022/05/25 02:30:27;;;;;;;;;;;;;;;10.17;77.66;101236.38;5050200;28;19923;-57
2022/05/25 02:33:00;;;;;;;;;;;;;;;10.13;77.63;101246.44;5052200;28;20387;-57
2022/05/25 02:35:26;;;;;;;;;;;;;;;10.12;76.95;101249.25;5051954;28;19928;-57
2022/05/25 02:37:52;;;;;;;;;;;;;;;10.09;77.14;101245.91;5048073;28;19920;-57
2022/05/25 02:40:17;;;;;;;;;;;;;;;10.09;77.64;101245.06;5051870;28;20004;-57
2022/05/25 02:42:43;;;;;;;;;;;;;;;10.08;77.56;101246.88;5052160;28;20012;-57
2022/05/25 02:45:09;;;;;;;;;;;;;;;10.06;77.78;101254.16;5052397;28;20330;-57
2022/05/25 02:47:34;;;;;;;;;;;;;;;10.06;77.05;101256.78;5052056;28;20359;-57
2022/05/25 02:50:00;;;;;;;;;;;;;;;10.04;78.02;101257.91;5051647;28;19920;-58
2022/05/25 02:52:25;;;;;;;;;;;;;;;10.02;78.37;101247.47;5051401;28;19981;-57
2022/05/25 02:54:50;;;;;;;;;;;;;;;10.00;77.99;101256.53;5051555;28;20011;-57
2022/05/25 02:57:16;;;;;;;;;;;;;;;9.96;77.81;101258.66;5051945;28;19921;-57
2022/05/25 02:59:41;;;;;;;;;;;;;;;9.96;78.29;101261.31;5051654;28;20003;-57
2022/05/25 03:02:06;;;;;;;;;;;;;;;9.96;77.69;101261.31;5050944;28;20389;-57
2022/05/25 03:04:32;;;;;;;;;;;;;;;9.96;78.85;101261.31;5051836;28;20371;-57
2022/05/25 03:06:57;;;;;;;;;;;;;;;9.94;77.57;101256.16;5051879;28;19927;-57
2022/05/25 03:09:22;;;;;;;;;;;;;;;9.94;77.75;101265.91;5051278;28;20357;-57
2022/05/25 03:11:48;;;;;;;;;;;;;;;9.94;77.75;101268.56;5050999;28;20382;-57
2022/05/25 03:14:13;;;;;;;;;;;;;;;9.94;77.88;101271.22;5046525;28;20007;-57
2022/05/25 03:16:38;;;;;;;;;;;;;;;9.92;77.88;101276.66;5051564;28;20354;-57
2022/05/25 03:19:03;;;;;;;;;;;;;;;9.90;78.54;101277.78;5051587;28;19960;-57
2022/05/25 03:21:29;;;;;;;;;;;;;;;9.86;77.70;101282.53;5050483;28;19928;-57
2022/05/25 03:23:54;;;;;;;;;;;;;;;9.83;77.73;101273.06;5051584;28;20395;-57
2022/05/25 03:26:19;;;;;;;;;;;;;;;9.84;77.86;101276.56;5051647;28;19970;-57
2022/05/25 03:28:44;;;;;;;;;;;;;;;9.86;77.30;101277.25;5051284;28;19920;-57
2022/05/25 03:31:10;;;;;;;;;;;;;;;9.82;77.41;101276.72;5047305;28;19959;-56
2022/05/25 03:33:36;;;;;;;;;;;;;;;9.80;78.37;101276.03;5050919;28;20550;-57
2022/05/25 03:36:01;;;;;;;;;;;;;;;9.79;77.87;101279.66;5048900;28;19964;-58
2022/05/25 03:38:30;;;;;;;;;;;;;;;9.80;78.63;101283.97;5040390;28;19924;-57
2022/05/25 03:40:57;;;;;;;;;;;;;;;9.77;78.08;101286.91;5051895;28;19925;-57
2022/05/25 03:43:24;;;;;;;;;;;;;;;9.77;78.24;101294.03;5055326;28;19917;-57
2022/05/25 03:45:50;;;;;;;;;;;;;;;9.76;77.83;101295.81;5054648;28;19928;-57
2022/05/25 03:48:15;;;;;;;;;;;;;;;9.74;78.40;101300.44;5055819;28;19916;-57
2022/05/25 03:50:41;;;;;;;;;;;;;;;9.75;77.57;101298.63;5054659;28;21675;-57
2022/05/25 03:53:07;;;;;;;;;;;;;;;9.74;78.32;101299.59;5055357;28;19936;-57
2022/05/25 03:55:33;;;;;;;;;;;;;;;9.75;77.41;101307.41;5055074;28;20279;-57
2022/05/25 03:57:58;;;;;;;;;;;;;;;9.73;77.81;101309.38;5054694;28;19929;-57
2022/05/25 04:00:24;;;;;;;;;;;;;;;9.70;78.74;101309.66;5051876;28;19936;-57
2022/05/25 04:02:49;;;;;;;;;;;;;;;9.66;78.62;101308.25;5050821;28;19927;-57
2022/05/25 04:05:14;;;;;;;;;;;;;;;9.66;78.54;101310.91;5050178;28;19935;-57
2022/05/25 04:07:41;;;;;;;;;;;;;;;9.67;77.91;101315.25;5054042;28;19955;-57
2022/05/25 04:10:07;;;;;;;;;;;;;;;9.68;78.24;101316.91;5049837;28;20012;-57
2022/05/25 04:12:33;;;;;;;;;;;;;;;9.67;78.20;101316.06;5054482;28;19930;-57
2022/05/25 04:14:59;;;;;;;;;;;;;;;9.67;78.29;101320.53;5054013;28;19921;-57
2022/05/25 04:17:24;;;;;;;;;;;;;;;9.68;78.20;101322.22;5051034;28;20301;-57
2022/05/25 04:19:50;;;;;;;;;;;;;;;9.69;78.40;101323.88;5051569;28;19925;-57
2022/05/25 04:22:15;;;;;;;;;;;;;;;9.66;78.35;101318.84;5053257;28;19921;-58
2022/05/25 04:24:40;;;;;;;;;;;;;;;9.66;78.32;101324.16;5054242;28;19920;-57
2022/05/25 04:27:06;;;;;;;;;;;;;;;9.66;78.31;101319.69;5054246;28;19925;-57
2022/05/25 04:29:31;;;;;;;;;;;;;;;9.64;78.72;101319.00;5052650;28;20698;-57
2022/05/25 04:31:56;;;;;;;;;;;;;;;9.68;78.06;101323.03;5053830;28;19928;-57
2022/05/25 04:34:22;;;;;;;;;;;;;;;9.69;77.73;101324.69;5053897;28;19920;-57
2022/05/25 04:36:47;;;;;;;;;;;;;;;9.69;79.07;101323.88;5054387;28;19952;-57
2022/05/25 04:39:12;;;;;;;;;;;;;;;9.68;79.37;101316.91;5052614;28;19925;-57
2022/05/25 04:41:37;;;;;;;;;;;;;;;9.71;78.42;101321.91;5052613;28;19947;-57
2022/05/25 04:44:03;;;;;;;;;;;;;;;9.71;78.40;101337.78;5053977;28;19921;-56
2022/05/25 04:46:29;;;;;;;;;;;;;;;9.72;79.02;101334.16;5053892;28;19927;-57
2022/05/25 04:48:54;;;;;;;;;;;;;;;9.73;79.25;101329.72;5054172;28;20271;-57
2022/05/25 04:51:19;;;;;;;;;;;;;;;9.73;80.15;101330.56;5051523;28;19974;-57
2022/05/25 04:53:44;;;;;;;;;;;;;;;9.73;79.09;101335.84;5053962;28;20474;-57
2022/05/25 04:58:54;;;;;;;;;;;;;;;9.78;79.50;101336.22;5053864;28;20008;-57
2022/05/25 05:01:19;;;;;;;;;;;;;;;9.79;79.50;101345.88;5047046;28;20007;-59
2022/05/25 05:03:45;;;;;;;;;;;;;;;9.82;78.88;101344.75;5044163;28;19929;-57
2022/05/25 05:06:10;;;;;;;;;;;;;;;9.96;79.63;101340.78;5045046;28;19921;-58
2022/05/25 05:08:35;;;;;;;;;;;;;;;9.87;79.54;101341.66;5043896;28;19967;-57
2022/05/25 05:11:05;;;;;;;;;;;;;;;9.92;79.60;101344.72;5040019;28;19925;-58
2022/05/25 05:13:30;;;;;;;;;;;;;;;9.91;79.42;101348.31;5049275;28;20264;-58
2022/05/25 05:16:01;;;;;;;;;;;;;;;9.93;81.03;101351.69;5047331;28;19924;-58
2022/05/25 05:18:26;;;;;;;;;;;;;;;9.96;80.82;101351.38;5045344;28;19929;-57
2022/05/25 05:20:52;;;;;;;;;;;;;;;10.00;79.10;101338.66;5047849;28;20005;-57
2022/05/25 05:23:17;;;;;;;;;;;;;;;10.04;79.57;101340.91;5045317;28;20402;-58
2022/05/25 05:25:42;;;;;;;;;;;;;;;10.11;79.20;101342.97;5040470;28;20038;-57
2022/05/25 05:28:07;;;;;;;;;;;;;;;10.12;80.12;101334.03;5041238;28;19921;-58
2022/05/25 05:30:33;;;;;;;;;;;;;;;10.19;79.56;101330.66;5039602;28;20713;-58
2022/05/25 05:32:58;;;;;;;;;;;;;;;10.29;79.55;101330.59;5045741;28;19927;-57
2022/05/25 05:35:26;;;;;;;;;;;;;;;10.26;80.10;101322.94;5041974;28;19921;-58
2022/05/25 05:37:54;;;;;;;;;;;;;;;10.33;80.28;101329.34;5046753;28;19928;-58
2022/05/25 05:40:19;;;;;;;;;;;;;;;10.39;80.54;101322.59;5049125;28;20371;-57
2022/05/25 05:42:46;;;;;;;;;;;;;;;10.46;80.78;101331.66;5045094;28;19929;-57
2022/05/25 05:45:16;;;;;;;;;;;;;;;10.54;80.78;101322.97;5047806;28;20023;-57
2022/05/25 05:48:04;;;;;;;;;;;;;;;10.58;79.38;101327.00;5053398;28;19921;-57
2022/05/25 05:50:30;;;;;;;;;;;;;;;10.73;79.92;101331.78;5041230;28;19975;-58
2022/05/25 05:52:56;;;;;;;;;;;;;;;10.69;81.13;101325.09;5049976;28;19920;-59
2022/05/25 05:55:21;;;;;;;;;;;;;;;10.73;80.85;101321.16;5051107;28;19928;-59
2022/05/25 05:57:47;;;;;;;;;;;;;;;10.83;79.62;101329.91;5052203;28;20015;-59
2022/05/25 06:00:15;;;;;;;;;;;;;;;10.88;79.57;101335.59;5051441;28;19924;-58
2022/05/25 06:02:40;;;;;;;;;;;;;;;10.99;79.85;101336.31;5052344;28;19921;-55
2022/05/25 06:05:05;;;;;;;;;;;;;;;11.09;80.34;101337.09;5051951;28;19932;-55
2022/05/25 06:07:30;;;;;;;;;;;;;;;11.21;79.11;101344.81;5036192;28;19920;-55
2022/05/25 06:09:56;;;;;;;;;;;;;;;11.43;79.15;101339.03;5052763;28;19921;-55
2022/05/25 06:12:22;;;;;;;;;;;;;;;11.55;79.58;101344.09;5051608;28;19921;-56
2022/05/25 06:14:47;;;;;;;;;;;;;;;11.59;79.23;101348.06;5052507;28;19928;-56
2022/05/25 06:19:56;;;;;;;;;;;;;;;11.41;79.40;101354.25;5050051;28;20290;-55
2022/05/25 06:22:21;;;;;;;;;;;;;;;11.62;79.50;101354.91;5052625;28;20027;-56
2022/05/25 06:24:47;;;;;;;;;;;;;;;11.56;79.63;101359.03;5050492;28;19928;-55
2022/05/25 06:27:13;;;;;;;;;;;;;;;11.63;79.45;101370.69;5052677;28;19925;-56
2022/05/25 06:29:39;;;;;;;;;;;;;;;11.66;79.14;101370.41;5051707;28;19921;-56
2022/05/25 06:32:05;;;;;;;;;;;;;;;11.65;79.19;101368.69;5051109;28;19921;-55
2022/05/25 06:34:30;;;;;;;;;;;;;;;11.86;79.28;101374.66;5050824;28;19946;-58
2022/05/25 06:36:56;;;;;;;;;;;;;;;11.75;78.96;101368.59;5038729;28;19925;-57
2022/05/25 06:39:21;;;;;;;;;;;;;;;11.82;79.41;101371.47;5050123;28;19935;-56
2022/05/25 06:41:46;;;;;;;;;;;;;;;11.87;79.54;101385.13;5051506;28;19921;-56
2022/05/25 06:44:11;;;;;;;;;;;;;;;11.89;79.57;101380.47;5050203;28;20322;-56
2022/05/25 06:46:36;;;;;;;;;;;;;;;11.90;79.17;101386.66;5048921;28;20420;-56
2022/05/25 06:49:02;;;;;;;;;;;;;;;11.95;79.46;101385.16;5047788;28;19921;-57
2022/05/25 06:51:28;;;;;;;;;;;;;;;12.01;78.75;101394.34;5050912;28;19936;-56
2022/05/25 06:53:54;;;;;;;;;;;;;;;12.07;78.56;101388.44;5050846;28;20367;-56
2022/05/25 06:56:20;;;;;;;;;;;;;;;12.10;79.10;101388.09;5051624;28;19920;-56
2022/05/25 06:58:45;;;;;;;;;;;;;;;12.18;78.61;101384.66;5048981;28;20364;-57
2022/05/25 07:01:11;;;;;;;;;;;;;;;12.04;79.18;101395.91;5050586;28;19975;-56
2022/05/25 07:03:38;;;;;;;;;;;;;;;12.15;79.01;101392.13;5052151;28;19925;-57
2022/05/25 07:06:04;;;;;;;;;;;;;;;12.12;78.84;101395.94;5051086;28;19928;-56
2022/05/25 07:08:29;;;;;;;;;;;;;;;12.23;78.95;101394.81;5052686;28;19917;-56
2022/05/25 07:10:54;;;;;;;;;;;;;;;12.29;78.70;101401.34;5049237;28;20398;-57
2022/05/25 07:13:20;;;;;;;;;;;;;;;12.51;78.81;101400.78;5049511;28;20399;-58
2022/05/25 07:15:45;;;;;;;;;;;;;;;12.42;78.79;101401.72;5046997;28;19970;-58
2022/05/25 07:18:10;;;;;;;;;;;;;;;12.54;78.64;101410.28;5021453;28;19921;-57
2022/05/25 07:20:36;;;;;;;;;;;;;;;12.51;78.84;101416.75;5055009;28;19956;-57
2022/05/25 07:23:02;;;;;;;;;;;;;;;12.64;77.93;101420.78;5054435;28;20328;-56
2022/05/25 07:25:27;;;;;;;;;;;;;;;12.68;78.18;101416.78;5054184;28;20006;-57
2022/05/25 07:27:52;;;;;;;;;;;;;;;12.75;77.92;101417.81;5056154;28;19917;-56
2022/05/25 07:30:17;;;;;;;;;;;;;;;12.80;77.83;101420.00;5053602;28;20011;-56
2022/05/25 07:32:45;;;;;;;;;;;;;;;12.97;77.12;101423.50;5034931;28;19923;-56
2022/05/25 07:35:11;;;;;;;;;;;;;;;13.09;76.79;101425.88;5054790;28;20260;-57
2022/05/25 07:37:39;;;;;;;;;;;;;;;13.26;75.91;101427.56;5055591;28;19925;-57
2022/05/25 07:40:10;;;;;;;;;;;;;;;13.22;75.71;101426.22;5045411;28;19956;-56
2022/05/25 07:42:36;;;;;;;;;;;;;;;13.24;76.22;101421.59;5055865;28;19927;-56
2022/05/25 07:45:03;;;;;;;;;;;;;;;13.35;75.77;101411.56;5055397;28;19920;-57
2022/05/25 07:47:29;;;;;;;;;;;;;;;13.37;75.79;101428.25;5053999;28;19955;-57
2022/05/25 07:49:54;;;;;;;;;;;;;;;13.45;76.07;101423.75;5046801;28;19962;-57
2022/05/25 07:52:25;;;;;;;;;;;;;;;13.51;76.08;101427.59;5040158;28;19925;-57
2022/05/25 07:54:50;;;;;;;;;;;;;;;13.72;75.14;101424.44;5052633;28;19959;-57
2022/05/25 07:57:15;;;;;;;;;;;;;;;13.69;75.58;101439.94;5055743;28;20387;-56
2022/05/25 07:59:41;;;;;;;;;;;;;;;13.68;75.32;101432.94;5038036;28;19921;-57
2022/05/25 08:07:38;;;;;;;;;;;;;;;13.80;74.07;101438.75;5053709;28;19936;-58
2022/05/25 08:10:06;;;;;;;;;;;;;;;13.91;74.16;101441.06;5050292;28;19925;-58
2022/05/25 08:12:34;;;;;;;;;;;;;;;14.07;73.98;101442.06;5050356;28;19927;-59
2022/05/25 08:15:00;;;;;;;;;;;;;;;14.23;73.29;101442.03;5049205;28;19931;-60
2022/05/25 08:17:25;;;;;;;;;;;;;;;14.40;73.31;101441.94;5059292;28;19956;-59
2022/05/25 08:19:51;;;;;;;;;;;;;;;14.50;73.83;101436.41;5067449;28;20046;-60
2022/05/25 08:22:16;;;;;;;;;;;;;;;14.69;71.76;101434.34;5068657;28;19931;-59
2022/05/25 08:24:41;;;;;;;;;;;;;;;14.75;72.19;101442.50;5072464;28;20035;-59
2022/05/25 08:27:07;;;;;;;;;;;;;;;14.83;72.31;101436.31;5065656;28;19931;-59
2022/05/25 08:29:32;;;;;;;;;;;;;;;14.91;71.39;101441.59;5070034;28;20006;-59
2022/05/25 08:31:58;;;;;;;;;;;;;;;14.88;71.00;101438.44;5070004;28;19920;-59
2022/05/25 08:34:23;;;;;;;;;;;;;;;14.93;71.31;101431.56;5069448;28;19925;-60
2022/05/25 08:36:50;;;;;;;;;;;;;;;15.12;70.32;101428.63;5072749;28;20298;-60
2022/05/25 08:39:15;;;;;;;;;;;;;;;15.05;70.74;101428.50;5077633;28;20267;-60
2022/05/25 08:41:42;;;;;;;;;;;;;;;15.15;70.23;101429.09;5064594;28;19920;-59
2022/05/25 08:44:07;;;;;;;;;;;;;;;15.14;71.23;101421.28;5081500;28;19928;-60
2022/05/25 08:46:33;;;;;;;;;;;;;;;15.17;71.02;101424.41;5069226;28;19925;-59
2022/05/25 08:49:01;;;;;;;;;;;;;;;15.23;69.58;101424.69;5084823;28;20260;-60
2022/05/25 08:51:27;;;;;;;;;;;;;;;15.33;70.11;101419.94;5074412;28;20324;-59
2022/05/25 08:53:53;;;;;;;;;;;;;;;15.45;69.28;101423.84;5078692;28;19928;-60
2022/05/25 08:56:36;;;;;;;;;;;;;;;15.42;67.86;101416.22;5073070;28;20282;-59
2022/05/25 08:59:23;;;;;;;;;;;;;;;15.51;69.51;101416.13;5071170;28;19920;-59
2022/05/25 09:01:53;;;;;;;;;;;;;;;15.74;67.77;101416.94;5076950;28;20039;-59
2022/05/25 09:04:36;;;;;;;;;;;;;;;15.96;64.72;101427.78;5080799;28;19924;-59
2022/05/25 09:07:10;;;;;;;;;;;;;;;15.91;64.73;101432.81;5069717;28;19925;-59
2022/05/25 09:09:40;;;;;;;;;;;;;;;15.98;63.96;101430.25;5079078;28;20011;-59
2022/05/25 09:12:25;;;;;;;;;;;;;;;15.98;63.95;101428.44;5074222;28;20474;-59
2022/05/25 09:14:53;;;;;;;;;;;;;;;15.91;65.83;101427.47;5073024;28;20442;-60
2022/05/25 09:17:26;;;;;;;;;;;;;;;16.10;63.50;101430.66;5069130;28;22386;-59
2022/05/25 09:19:52;;;;;;;;;;;;;;;16.04;61.71;101436.72;5072679;28;20279;-59
2022/05/25 09:22:19;;;;;;;;;;;;;;;15.87;61.30;101437.72;5073355;28;19925;-59
2022/05/25 09:24:45;;;;;;;;;;;;;;;15.79;60.22;101439.63;5070797;28;19965;-59
2022/05/25 09:27:12;;;;;;;;;;;;;;;15.62;60.50;101444.25;5078202;28;19920;-59
2022/05/25 09:29:37;;;;;;;;;;;;;;;15.67;60.07;101445.41;5071035;28;19928;-58
2022/05/25 09:32:21;;;;;;;;;;;;;;;15.48;61.35;101437.91;5073361;28;20299;-59
2022/05/25 09:35:00;;;;;;;;;;;;;;;15.41;61.61;101438.59;5071014;28;19924;-59
2022/05/25 09:37:44;;;;;;;;;;;;;;;15.46;60.63;101435.38;5072230;28;19999;-59
2022/05/25 09:40:13;;;;;;;;;;;;;;;15.29;61.91;101440.03;5073431;28;20264;-59
2022/05/25 09:42:38;;;;;;;;;;;;;;;15.31;61.89;101438.00;5071883;28;19921;-59
2022/05/25 09:45:13;;;;;;;;;;;;;;;15.67;58.23;101448.09;5063647;28;19975;-59
2022/05/25 09:47:42;;;;;;;;;;;;;;;15.85;58.26;101431.69;5073196;28;20004;-59
2022/05/25 09:50:13;;;;;;;;;;;;;;;16.10;57.13;101425.31;5069869;28;20481;-59
2022/05/25 09:52:42;;;;;;;;;;;;;;;16.20;57.72;101438.41;5070352;28;19966;-59
2022/05/25 09:55:28;;;;;;;;;;;;;;;16.10;59.01;101452.06;5069603;28;19971;-59
2022/05/25 09:57:56;;;;;;;;;;;;;;;16.18;58.64;101441.25;5062174;28;19921;-59
2022/05/25 10:00:34;;;;;;;;;;;;;;;16.24;57.53;101453.91;5063495;28;20011;-59
2022/05/25 10:03:21;;;;;;;;;;;;;;;16.07;57.50;101457.75;5067035;28;19920;-59
2022/05/25 10:05:50;;;;;;;;;;;;;;;15.94;57.75;101453.88;5062981;28;20039;-59
2022/05/25 10:08:22;;;;;;;;;;;;;;;16.05;56.24;101466.00;5063534;28;19927;-59
2022/05/25 10:10:59;;;;;;;;;;;;;;;15.77;58.01;101457.66;5061177;28;19931;-59
2022/05/25 10:13:43;;;;;;;;;;;;;;;15.79;57.77;101453.00;5063556;28;19967;-59
2022/05/25 10:16:23;;;;;;;;;;;;;;;15.60;58.91;101450.63;5063641;28;19924;-59
2022/05/25 10:18:48;;;;;;;;;;;;;;;15.53;59.41;101456.88;5064420;28;19921;-59
2022/05/25 10:21:23;;;;;;;;;;;;;;;15.45;60.17;101455.94;5068666;28;19969;-59
2022/05/25 10:23:48;;;;;;;;;;;;;;;15.66;58.94;101451.78;5065558;28;19935;-59
2022/05/25 10:26:17;;;;;;;;;;;;;;;15.54;59.78;101453.22;5067065;28;20011;-59
2022/05/25 10:28:55;;;;;;;;;;;;;;;15.72;57.50;101456.41;5064927;28;19917;-59
2022/05/25 10:37:02;;;;;;;;;;;;;;;15.89;57.93;101448.19;5061127;28;19924;-59
2022/05/25 10:39:30;;;;;;;;;;;;;;;15.96;56.19;101441.16;5064013;28;19939;-59
2022/05/25 10:42:00;;;;;;;;;;;;;;;15.94;55.68;101443.16;5063215;28;20418;-59
2022/05/25 10:44:27;;;;;;;;;;;;;;;16.14;54.14;101440.78;5064418;28;19924;-59
2022/05/25 10:46:53;;;;;;;;;;;;;;;16.07;53.61;101445.22;5065653;28;20014;-59
2022/05/25 10:49:36;;;;;;;;;;;;;;;15.93;55.02;101436.16;5064536;28;20375;-59
2022/05/25 10:52:21;;;;;;;;;;;;;;;15.93;54.96;101452.22;5063385;28;20408;-59
2022/05/25 10:54:50;;;;;;;;;;;;;;;15.98;55.06;101438.28;5065234;28;20055;-59
2022/05/25 10:57:34;;;;;;;;;;;;;;;16.24;54.37;101437.03;5064348;28;19927;-60
2022/05/25 11:00:08;;;;;;;;;;;;;;;16.16;55.21;101440.63;5063666;28;19920;-59
2022/05/25 11:02:46;;;;;;;;;;;;;;;16.17;54.50;101439.59;5072262;28;20011;-59
2022/05/25 11:05:11;;;;;;;;;;;;;;;16.10;54.41;101441.34;5074283;28;19990;-58
2022/05/25 11:07:40;;;;;;;;;;;;;;;16.22;53.21;101439.88;5070920;28;20019;-58
2022/05/25 11:10:16;;;;;;;;;;;;;;;16.17;55.16;101442.28;5065477;28;19928;-59
2022/05/25 11:12:41;;;;;;;;;;;;;;;16.52;54.29;101439.03;5079194;28;19920;-59
2022/05/25 11:15:06;;;;;;;;;;;;;;;16.72;54.59;101433.09;5071426;28;19924;-59
2022/05/25 11:17:39;;;;;;;;;;;;;;;16.93;54.34;101441.16;5069852;28;19935;-60
2022/05/25 11:20:07;;;;;;;;;;;;;;;17.05;53.30;101446.06;5066373;28;19920;-59
2022/05/25 11:22:41;;;;;;;;;;;;;;;17.03;52.17;101440.88;5065296;28;19943;-59
2022/05/25 11:25:17;;;;;;;;;;;;;;;16.98;52.05;101427.22;5064384;28;20015;-59
2022/05/25 11:27:45;;;;;;;;;;;;;;;17.14;53.36;101419.97;5063100;28;19966;-60
2022/05/25 11:30:29;;;;;;;;;;;;;;;17.40;53.05;101426.59;5070629;28;19929;-59
2022/05/25 11:33:27;;;;;;;;;;;;;;;17.65;51.52;101410.91;5078049;28;19920;-58
2022/05/25 11:35:52;;;;;;;;;;;;;;;17.99;48.56;101416.50;5025339;28;19920;-58
2022/05/25 11:38:21;;;;;;;;;;;;;;;18.10;49.30;101417.84;5071317;28;19928;-58
2022/05/25 11:40:46;;;;;;;;;;;;;;;18.13;47.29;101414.78;5047860;28;20286;-57
2022/05/25 11:43:32;;;;;;;;;;;;;;;18.25;46.78;101425.75;5068835;28;19917;-58
2022/05/25 11:46:08;;;;;;;;;;;;;;;18.19;46.69;101410.44;5070961;28;19921;-58
2022/05/25 11:49:02;;;;;;;;;;;;;;;18.13;48.86;101410.25;5077280;28;20377;-58
2022/05/25 11:51:41;;;;;;;;;;;;;;;18.19;47.61;101415.81;5070473;28;19920;-58
2022/05/25 11:54:06;;;;;;;;;;;;;;;17.92;48.76;101407.59;5071761;28;19916;-57
2022/05/25 11:56:31;;;;;;;;;;;;;;;18.12;48.19;101411.25;5070985;28;19928;-58
2022/05/25 11:59:05;;;;;;;;;;;;;;;17.96;48.72;101424.97;5071397;28;19974;-58
2022/05/25 12:01:42;;;;;;;;;;;;;;;17.97;47.85;101423.94;5070775;28;20299;-58
2022/05/25 12:04:10;;;;;;;;;;;;;;;17.86;48.11;101428.81;5064138;28;19952;-58
2022/05/25 12:06:47;;;;;;;;;;;;;;;17.77;47.67;101424.63;5074434;28;19966;-58
2022/05/25 12:09:31;;;;;;;;;;;;;;;17.60;48.19;101419.56;5074810;28;19952;-59
2022/05/25 12:12:05;;;;;;;;;;;;;;;17.71;50.40;101420.06;5072610;28;19920;-58
2022/05/25 12:14:37;;;;;;;;;;;;;;;18.07;48.03;101416.41;5073900;28;19924;-57
2022/05/25 12:17:12;;;;;;;;;;;;;;;18.01;47.82;101414.47;5071854;28;19920;-57
2022/05/25 12:19:38;;;;;;;;;;;;;;;17.85;47.82;101416.44;5082436;28;19970;-57
2022/05/25 12:22:03;;;;;;;;;;;;;;;17.68;47.83;101420.44;5073032;28;19920;-58
2022/05/25 12:24:31;;;;;;;;;;;;;;;17.54;47.71;101424.84;5074386;28;19924;-58
2022/05/25 12:26:58;;;;;;;;;;;;;;;17.26;48.59;101423.78;5074570;28;19932;-58
2022/05/25 12:29:33;;;;;;;;;;;;;;;17.44;46.43;101439.44;5073833;28;19924;-57
2022/05/25 12:31:59;;;;;;;;;;;;;;;17.24;47.24;101441.94;5074994;28;19920;-58
2022/05/25 12:34:28;;;;;;;;;;;;;;;17.13;48.48;101429.03;5074007;28;19943;-58
2022/05/25 12:36:53;;;;;;;;;;;;;;;17.25;48.97;101432.88;5075049;28;19924;-58
2022/05/25 12:39:37;;;;;;;;;;;;;;;17.24;49.12;101431.22;5072295;28;20507;-59
2022/05/25 12:42:21;;;;;;;;;;;;;;;17.35;48.13;101421.81;5074859;28;19924;-58
2022/05/25 12:50:35;;;;;;;;;;;;;;;17.28;46.67;101437.84;5076417;28;20011;-58
2022/05/25 12:53:32;;;;;;;;;;;;;;;17.27;47.88;101435.34;5074455;28;20327;-58
2022/05/25 12:55:59;;;;;;;;;;;;;;;17.46;46.95;101444.59;5007479;28;19991;-58
2022/05/25 12:58:54;;;;;;;;;;;;;;;17.28;47.52;101440.53;5074472;28;20378;-57
2022/05/25 13:01:31;;;;;;;;;;;;;;;17.24;47.86;101436.56;5050325;28;19927;-58
2022/05/25 13:03:57;;;;;;;;;;;;;;;17.29;47.40;101439.50;5071863;28;19921;-59
2022/05/25 13:06:35;;;;;;;;;;;;;;;17.07;48.06;101439.50;5072504;28;19920;-58
2022/05/25 13:09:06;;;;;;;;;;;;;;;16.97;48.41;101441.59;5073585;28;19924;-58
2022/05/25 13:11:50;;;;;;;;;;;;;;;16.89;49.39;101439.06;5072433;28;19943;-58
2022/05/25 13:14:25;;;;;;;;;;;;;;;16.89;50.13;101429.19;5074108;28;20019;-58